Time;durP1;ratioP1;P1;durP2;ratioP2;P2;SDS_P1;SDS_P2;PMS_P1;PMS_P2;Temp;Humidity;BMP_temperature;BMP_pressure;BME280_temperature;BME280_humidity;BME280_pressure;Samples;Min_cycle;Max_cycle;Signal;HPM_P1;HPM_P2
2023/08/09 00:01:15;;;;;;;1.62;1.20;;;;;;;;;;4386182;32;316904;-84
2023/08/09 00:03:43;;;;;;;1.10;0.85;;;;;;;;;;4372475;32;418813;-82
2023/08/09 00:06:11;;;;;;;2.42;0.85;;;;;;;;;;4387192;32;316955;-86
2023/08/09 00:08:38;;;;;;;1.45;1.00;;;;;;;;;;4368988;32;316736;-86
2023/08/09 00:11:07;;;;;;;0.88;0.80;;;;;;;;;;4386061;32;316979;-82
2023/08/09 00:13:35;;;;;;;1.48;0.82;;;;;;;;;;4376452;32;317044;-84
2023/08/09 00:16:02;;;;;;;0.80;0.80;;;;;;;;;;4387319;32;317160;-83
2023/08/09 00:18:31;;;;;;;1.77;1.67;;;;;;;;;;4375380;32;316947;-85
2023/08/09 00:21:00;;;;;;;1.27;1.05;;;;;;;;;;4387117;32;316870;-83
2023/08/09 00:23:28;;;;;;;1.80;1.27;;;;;;;;;;4375964;32;316743;-86
2023/08/09 00:25:56;;;;;;;0.80;0.70;;;;;;;;;;4385158;32;316771;-82
2023/08/09 00:28:23;;;;;;;2.33;1.33;;;;;;;;;;4377080;32;316909;-81
2023/08/09 00:30:51;;;;;;;4.00;1.35;;;;;;;;;;4385705;32;349015;-86
2023/08/09 00:33:18;;;;;;;2.50;1.42;;;;;;;;;;4377663;32;317224;-83
2023/08/09 00:35:47;;;;;;;1.42;1.10;;;;;;;;;;4385049;32;316961;-82
2023/08/09 00:38:14;;;;;;;1.40;0.90;;;;;;;;;;4386949;32;316744;-82
2023/08/09 00:40:42;;;;;;;1.15;0.80;;;;;;;;;;4373598;32;416052;-82
2023/08/09 00:43:10;;;;;;;0.85;0.85;;;;;;;;;;4386617;32;316702;-81
2023/08/09 00:45:38;;;;;;;0.80;0.80;;;;;;;;;;4377420;32;316994;-82
2023/08/09 00:48:06;;;;;;;1.95;1.10;;;;;;;;;;4386203;32;317126;-85
2023/08/09 00:50:35;;;;;;;2.45;1.00;;;;;;;;;;4376177;32;316723;-85
2023/08/09 00:53:04;;;;;;;2.60;1.33;;;;;;;;;;4387248;32;316931;-85
2023/08/09 00:55:31;;;;;;;1.75;1.20;;;;;;;;;;4377278;32;316861;-86
2023/08/09 00:57:58;;;;;;;6.78;1.90;;;;;;;;;;4385655;32;316887;-83
2023/08/09 01:00:26;;;;;;;3.47;3.10;;;;;;;;;;4376108;32;316883;-82
2023/08/09 01:02:54;;;;;;;3.17;2.92;;;;;;;;;;4387138;32;317179;-85
2023/08/09 01:05:25;;;;;;;16.23;4.07;;;;;;;;;;4376222;32;316844;-83
2023/08/09 01:07:59;;;;;;;5.25;2.58;;;;;;;;;;4386803;32;317838;-82
2023/08/09 01:10:35;;;;;;;1.40;1.30;;;;;;;;;;4375059;32;316936;-85
2023/08/09 01:13:04;;;;;;;2.95;2.10;;;;;;;;;;4385989;32;316879;-85
2023/08/09 01:15:34;;;;;;;5.12;2.12;;;;;;;;;;4375624;32;316649;-85
2023/08/09 01:18:03;;;;;;;2.25;1.80;;;;;;;;;;4386293;32;316692;-85
2023/08/09 01:20:32;;;;;;;1.67;1.58;;;;;;;;;;4375909;32;316831;-85
2023/08/09 01:23:03;;;;;;;2.40;1.50;;;;;;;;;;4385906;32;316765;-86
2023/08/09 01:25:32;;;;;;;1.60;1.20;;;;;;;;;;4375901;32;316687;-85
2023/08/09 01:28:00;;;;;;;2.08;1.17;;;;;;;;;;4385248;32;349422;-85
2023/08/09 01:30:28;;;;;;;2.30;1.30;;;;;;;;;;4374086;32;316650;-86
2023/08/09 01:32:56;;;;;;;1.10;1.00;;;;;;;;;;4384700;32;358339;-84
2023/08/09 01:35:24;;;;;;;5.25;1.25;;;;;;;;;;4376606;32;316482;-82
2023/08/09 01:37:56;;;;;;;1.25;1.10;;;;;;;;;;4386590;32;316770;-85
2023/08/09 01:40:25;;;;;;;1.58;0.90;;;;;;;;;;4378368;32;316589;-86
2023/08/09 01:42:54;;;;;;;0.95;0.80;;;;;;;;;;4387285;32;316509;-81
2023/08/09 01:45:22;;;;;;;1.98;1.08;;;;;;;;;;4376716;32;316643;-85
2023/08/09 01:47:50;;;;;;;1.48;1.05;;;;;;;;;;4386591;32;316884;-81
2023/08/09 01:50:19;;;;;;;1.02;0.90;;;;;;;;;;4377682;32;316852;-82
2023/08/09 01:52:47;;;;;;;1.20;1.08;;;;;;;;;;4387060;32;316742;-84
2023/08/09 01:55:17;;;;;;;0.80;0.80;;;;;;;;;;4386842;32;316842;-82
2023/08/09 01:57:47;;;;;;;1.60;1.00;;;;;;;;;;4370883;32;419066;-82
2023/08/09 02:00:19;;;;;;;1.08;0.95;;;;;;;;;;4384559;32;316510;-83
2023/08/09 02:02:47;;;;;;;1.65;1.12;;;;;;;;;;4357347;32;388064;-86
2023/08/09 02:05:15;;;;;;;2.87;1.30;;;;;;;;;;4368358;32;322695;-82
2023/08/09 02:07:43;;;;;;;1.48;0.90;;;;;;;;;;4371437;32;415597;-81
2023/08/09 02:10:12;;;;;;;1.48;1.00;;;;;;;;;;4384602;32;348565;-85
2023/08/09 02:12:40;;;;;;;1.27;1.05;;;;;;;;;;4375141;32;317100;-82
2023/08/09 02:15:09;;;;;;;1.00;0.90;;;;;;;;;;4385524;32;317116;-82
2023/08/09 02:17:38;;;;;;;1.95;0.90;;;;;;;;;;4374205;32;316758;-82
2023/08/09 02:20:08;;;;;;;0.90;0.80;;;;;;;;;;4384385;32;316822;-86
2023/08/09 02:22:39;;;;;;;1.50;1.08;;;;;;;;;;4373176;32;316528;-82
2023/08/09 02:25:09;;;;;;;2.25;0.93;;;;;;;;;;4384351;32;316464;-82
2023/08/09 02:27:36;;;;;;;2.10;1.02;;;;;;;;;;4372806;32;316958;-82
2023/08/09 02:30:06;;;;;;;1.23;0.93;;;;;;;;;;4386581;32;316663;-86
2023/08/09 02:32:36;;;;;;;1.12;0.82;;;;;;;;;;4378499;32;316677;-85
2023/08/09 02:35:07;;;;;;;1.45;1.25;;;;;;;;;;4388469;32;316611;-86
2023/08/09 02:37:34;;;;;;;0.88;0.70;;;;;;;;;;4375699;32;316603;-82
2023/08/09 02:40:04;;;;;;;1.25;0.90;;;;;;;;;;4387893;32;348224;-82
2023/08/09 02:42:31;;;;;;;1.40;1.10;;;;;;;;;;4378380;32;316627;-82
2023/08/09 02:44:59;;;;;;;4.25;1.00;;;;;;;;;;4387131;32;327034;-84
2023/08/09 02:47:26;;;;;;;0.98;0.88;;;;;;;;;;4376572;32;316553;-82
2023/08/09 02:49:54;;;;;;;1.95;0.93;;;;;;;;;;4388510;32;316699;-83
2023/08/09 02:52:23;;;;;;;2.25;0.85;;;;;;;;;;4376173;32;316525;-86
2023/08/09 02:54:50;;;;;;;1.62;0.90;;;;;;;;;;4387298;32;316429;-81
2023/08/09 02:57:18;;;;;;;1.77;0.98;;;;;;;;;;4375726;32;316661;-84
2023/08/09 02:59:46;;;;;;;2.72;0.80;;;;;;;;;;4388051;32;316763;-81
2023/08/09 03:02:15;;;;;;;8.57;0.95;;;;;;;;;;4386200;32;316726;-81
2023/08/09 03:04:42;;;;;;;1.17;1.08;;;;;;;;;;4375074;32;416122;-83
2023/08/09 03:07:10;;;;;;;4.68;1.33;;;;;;;;;;4388748;32;322914;-82
2023/08/09 03:09:40;;;;;;;1.87;1.20;;;;;;;;;;4376984;32;316694;-82
2023/08/09 03:12:08;;;;;;;2.37;1.08;;;;;;;;;;4386649;32;329313;-83
2023/08/09 03:14:35;;;;;;;1.20;1.00;;;;;;;;;;4377470;32;316887;-83
2023/08/09 03:17:03;;;;;;;1.85;1.20;;;;;;;;;;4385826;32;316683;-83
2023/08/09 03:19:30;;;;;;;1.62;1.40;;;;;;;;;;4377502;32;316516;-84
2023/08/09 03:21:58;;;;;;;3.67;0.95;;;;;;;;;;4387769;32;316607;-82
2023/08/09 03:24:26;;;;;;;6.37;1.20;;;;;;;;;;4377583;32;316843;-82
2023/08/09 03:26:55;;;;;;;5.93;1.30;;;;;;;;;;4386469;32;316519;-85
2023/08/09 03:29:22;;;;;;;6.95;1.10;;;;;;;;;;4377504;32;316397;-85
2023/08/09 03:31:50;;;;;;;2.37;1.20;;;;;;;;;;4386097;32;316529;-85
2023/08/09 03:34:17;;;;;;;1.30;1.20;;;;;;;;;;4377381;32;316639;-82
2023/08/09 03:36:45;;;;;;;1.50;1.10;;;;;;;;;;4387741;32;316557;-81
2023/08/09 03:39:12;;;;;;;4.78;1.20;;;;;;;;;;4387791;32;316668;-84
2023/08/09 03:41:40;;;;;;;1.50;1.00;;;;;;;;;;4376452;32;316586;-85
2023/08/09 03:44:09;;;;;;;1.35;1.10;;;;;;;;;;4386557;32;316571;-79
2023/08/09 03:46:36;;;;;;;3.15;1.20;;;;;;;;;;4376228;32;316834;-79
2023/08/09 03:49:04;;;;;;;2.05;1.10;;;;;;;;;;4387625;32;317079;-79
2023/08/09 03:51:32;;;;;;;4.62;1.35;;;;;;;;;;4376119;32;317052;-83
2023/08/09 03:53:59;;;;;;;1.45;1.00;;;;;;;;;;4386386;32;316609;-81
2023/08/09 03:56:27;;;;;;;3.13;1.20;;;;;;;;;;4375841;32;316609;-81
2023/08/09 03:58:54;;;;;;;3.78;1.52;;;;;;;;;;4386815;32;316902;-82
2023/08/09 04:01:23;;;;;;;2.72;1.48;;;;;;;;;;4375175;32;348973;-82
2023/08/09 04:03:51;;;;;;;5.72;1.60;;;;;;;;;;4388004;32;316744;-81
2023/08/09 04:06:19;;;;;;;3.58;1.15;;;;;;;;;;4377604;32;325551;-82
2023/08/09 04:08:47;;;;;;;1.55;1.20;;;;;;;;;;4387629;32;316828;-82
2023/08/09 04:11:14;;;;;;;3.53;1.45;;;;;;;;;;4387204;32;316847;-83
2023/08/09 04:13:42;;;;;;;7.87;3.30;;;;;;;;;;4371931;32;415830;-82
2023/08/09 04:16:10;;;;;;;3.90;1.58;;;;;;;;;;4387045;32;316803;-81
2023/08/09 04:18:39;;;;;;;1.30;1.00;;;;;;;;;;4375192;32;316979;-82
2023/08/09 04:21:06;;;;;;;2.37;1.23;;;;;;;;;;4385974;32;316808;-81
2023/08/09 04:23:34;;;;;;;1.73;1.27;;;;;;;;;;4373917;32;354332;-82
2023/08/09 04:26:03;;;;;;;1.42;1.10;;;;;;;;;;4387733;32;316946;-82
2023/08/09 04:28:30;;;;;;;2.50;1.30;;;;;;;;;;4375170;32;316981;-81
2023/08/09 04:30:58;;;;;;;2.17;1.30;;;;;;;;;;4386919;32;316597;-81
2023/08/09 04:33:25;;;;;;;4.18;2.08;;;;;;;;;;4376577;32;316865;-81
2023/08/09 04:35:54;;;;;;;2.10;1.10;;;;;;;;;;4386960;32;316666;-81
2023/08/09 04:38:22;;;;;;;4.18;1.30;;;;;;;;;;4376694;32;316852;-82
2023/08/09 04:40:49;;;;;;;4.32;1.27;;;;;;;;;;4385910;32;316502;-82
2023/08/09 04:43:17;;;;;;;3.70;1.20;;;;;;;;;;4376483;32;316998;-83
2023/08/09 04:45:44;;;;;;;3.70;1.62;;;;;;;;;;4384975;32;316829;-82
2023/08/09 04:48:17;;;;;;;1.85;1.42;;;;;;;;;;4372277;32;316718;-81
2023/08/09 04:50:45;;;;;;;5.43;1.23;;;;;;;;;;4374240;32;416161;-81
2023/08/09 04:53:14;;;;;;;2.28;1.20;;;;;;;;;;4385007;32;316650;-82
2023/08/09 04:55:41;;;;;;;4.70;1.55;;;;;;;;;;4356181;32;417698;-82
2023/08/09 04:58:09;;;;;;;3.70;1.50;;;;;;;;;;4382720;32;316696;-82
2023/08/09 05:00:37;;;;;;;3.65;1.33;;;;;;;;;;4376838;32;316731;-82
2023/08/09 05:03:06;;;;;;;4.18;1.67;;;;;;;;;;4385491;32;316791;-81
2023/08/09 05:05:34;;;;;;;2.45;1.58;;;;;;;;;;4375720;32;316868;-82
2023/08/09 05:08:01;;;;;;;2.72;1.73;;;;;;;;;;4385772;32;316739;-82
2023/08/09 05:10:30;;;;;;;1.60;1.40;;;;;;;;;;4376375;32;316784;-82
2023/08/09 05:12:58;;;;;;;2.08;1.70;;;;;;;;;;4386483;32;316852;-81
2023/08/09 05:15:25;;;;;;;9.77;1.73;;;;;;;;;;4376610;32;316646;-82
2023/08/09 05:17:53;;;;;;;3.80;1.85;;;;;;;;;;4386396;32;316803;-82
2023/08/09 05:20:20;;;;;;;5.20;2.03;;;;;;;;;;4371934;32;316834;-82
2023/08/09 05:22:48;;;;;;;2.92;1.42;;;;;;;;;;4386048;32;316754;-82
2023/08/09 05:25:16;;;;;;;3.10;1.50;;;;;;;;;;4386640;32;315708;-81
2023/08/09 05:27:47;;;;;;;3.90;1.42;;;;;;;;;;4372465;32;416086;-82
2023/08/09 05:30:15;;;;;;;8.52;1.62;;;;;;;;;;4386215;32;335263;-82
2023/08/09 05:32:43;;;;;;;2.12;1.25;;;;;;;;;;4373304;32;416023;-82
2023/08/09 05:35:10;;;;;;;4.03;1.45;;;;;;;;;;4386178;32;316817;-81
2023/08/09 05:37:38;;;;;;;4.68;1.52;;;;;;;;;;4376048;32;316915;-86
2023/08/09 05:40:09;;;;;;;2.50;1.48;;;;;;;;;;4386994;32;316842;-87
2023/08/09 05:42:37;;;;;;;2.58;1.60;;;;;;;;;;4376630;32;317029;-89
2023/08/09 05:45:08;;;;;;;2.65;1.48;;;;;;;;;;4384405;32;340576;-87
2023/08/09 05:47:36;;;;;;;2.35;1.12;;;;;;;;;;4375725;32;316682;-88
2023/08/09 05:50:03;;;;;;;10.57;2.37;;;;;;;;;;4385694;32;316907;-87
2023/08/09 05:52:31;;;;;;;3.50;1.73;;;;;;;;;;4375565;32;317764;-84
2023/08/09 05:54:58;;;;;;;3.22;1.60;;;;;;;;;;4386849;32;316632;-92
2023/08/09 05:57:27;;;;;;;5.37;1.50;;;;;;;;;;4376181;32;316678;-92
2023/08/09 05:59:55;;;;;;;2.58;1.37;;;;;;;;;;4386820;32;316628;-93
2023/08/09 06:02:24;;;;;;;9.05;1.30;;;;;;;;;;4373675;32;316743;-93
2023/08/09 06:04:51;;;;;;;1.87;1.50;;;;;;;;;;4385335;32;317049;-87
2023/08/09 06:07:19;;;;;;;1.85;1.30;;;;;;;;;;4375607;32;320789;-86
2023/08/09 06:09:47;;;;;;;1.45;1.35;;;;;;;;;;4386439;32;317077;-87
2023/08/09 06:12:15;;;;;;;8.65;1.83;;;;;;;;;;4386588;32;316736;-87
2023/08/09 06:14:42;;;;;;;1.23;1.12;;;;;;;;;;4373125;32;386385;-87
2023/08/09 06:17:10;;;;;;;5.00;1.40;;;;;;;;;;4385683;32;316762;-87
2023/08/09 06:19:39;;;;;;;3.20;1.35;;;;;;;;;;4374230;32;316651;-87
2023/08/09 06:22:06;;;;;;;3.08;2.08;;;;;;;;;;4383597;32;316517;-87
2023/08/09 06:24:34;;;;;;;3.60;1.67;;;;;;;;;;4375832;32;316972;-85
2023/08/09 06:27:02;;;;;;;4.35;2.58;;;;;;;;;;4385240;32;316664;-88
2023/08/09 06:29:29;;;;;;;18.43;9.30;;;;;;;;;;4374307;32;351084;-87
2023/08/09 06:31:57;;;;;;;12.10;8.50;;;;;;;;;;4386279;32;317690;-88
2023/08/09 06:34:24;;;;;;;9.30;2.40;;;;;;;;;;4374402;32;338743;-86
2023/08/09 06:36:53;;;;;;;3.20;2.10;;;;;;;;;;4386374;32;316520;-86
2023/08/09 06:39:21;;;;;;;3.40;1.98;;;;;;;;;;4375059;32;316764;-85
2023/08/09 06:41:50;;;;;;;5.12;3.67;;;;;;;;;;4385767;32;317123;-85
2023/08/09 06:44:17;;;;;;;3.92;2.92;;;;;;;;;;4373693;32;316586;-86
2023/08/09 06:46:45;;;;;;;3.72;2.65;;;;;;;;;;4386227;32;316576;-86
2023/08/09 06:49:12;;;;;;;10.77;7.45;;;;;;;;;;4384597;32;319060;-86
2023/08/09 06:51:41;;;;;;;10.82;8.15;;;;;;;;;;4375358;32;317692;-88
2023/08/09 06:54:10;;;;;;;4.10;2.53;;;;;;;;;;4386062;32;317702;-88
2023/08/09 06:56:37;;;;;;;4.43;3.72;;;;;;;;;;4374727;32;317027;-88
2023/08/09 06:59:05;;;;;;;4.05;2.17;;;;;;;;;;4386144;32;316641;-88
2023/08/09 07:01:32;;;;;;;6.35;4.20;;;;;;;;;;4373826;32;317150;-89
2023/08/09 07:04:00;;;;;;;3.33;2.05;;;;;;;;;;4387113;32;316689;-88
2023/08/09 07:06:27;;;;;;;2.10;1.62;;;;;;;;;;4374447;32;316679;-89
2023/08/09 07:08:55;;;;;;;4.53;1.85;;;;;;;;;;4385715;32;316674;-88
2023/08/09 07:11:24;;;;;;;3.12;1.62;;;;;;;;;;4376802;32;316547;-89
2023/08/09 07:13:52;;;;;;;6.68;3.15;;;;;;;;;;4386442;32;316650;-88
2023/08/09 07:16:19;;;;;;;3.80;1.65;;;;;;;;;;4370863;32;316929;-90
2023/08/09 07:18:47;;;;;;;3.40;2.00;;;;;;;;;;4389598;32;316508;-88
2023/08/09 07:21:14;;;;;;;2.20;1.90;;;;;;;;;;4387326;32;316706;-88
2023/08/09 07:26:49;;;;;;;2.05;1.58;;;;;;;;;;4323229;32;387726;-88
2023/08/09 07:29:16;;;;;;;5.40;1.67;;;;;;;;;;4385107;32;316643;-87
2023/08/09 07:31:44;;;;;;;4.78;1.67;;;;;;;;;;4375832;32;415884;-88
2023/08/09 07:34:12;;;;;;;1.87;1.30;;;;;;;;;;4387588;32;316511;-86
2023/08/09 07:36:40;;;;;;;2.75;1.45;;;;;;;;;;4377422;32;316762;-85
2023/08/09 07:39:09;;;;;;;2.28;1.50;;;;;;;;;;4388467;32;316482;-84
2023/08/09 07:41:37;;;;;;;1.95;1.30;;;;;;;;;;4379582;32;317006;-86
2023/08/09 07:44:06;;;;;;;1.20;1.10;;;;;;;;;;4388874;32;316988;-83
2023/08/09 07:46:34;;;;;;;4.65;1.42;;;;;;;;;;4378694;32;316825;-84
2023/08/09 07:49:01;;;;;;;1.20;1.10;;;;;;;;;;4388404;32;316693;-84
2023/08/09 07:51:29;;;;;;;1.33;1.23;;;;;;;;;;4377519;32;316676;-85
2023/08/09 07:53:56;;;;;;;1.48;1.37;;;;;;;;;;4387548;32;315800;-86
2023/08/09 07:56:24;;;;;;;3.05;1.40;;;;;;;;;;4377604;32;317053;-86
2023/08/09 07:58:53;;;;;;;2.17;1.48;;;;;;;;;;4389982;32;316516;-88
2023/08/09 08:01:22;;;;;;;2.95;1.60;;;;;;;;;;4377427;32;316801;-84
2023/08/09 08:03:49;;;;;;;3.80;1.37;;;;;;;;;;4388059;32;315843;-85
2023/08/09 08:06:18;;;;;;;1.70;1.20;;;;;;;;;;4378079;32;316516;-85
2023/08/09 08:08:46;;;;;;;1.25;1.12;;;;;;;;;;4387501;32;316620;-85
2023/08/09 08:11:14;;;;;;;1.80;1.40;;;;;;;;;;4387288;32;317089;-82
2023/08/09 08:13:43;;;;;;;1.67;1.40;;;;;;;;;;4376916;32;317028;-83
2023/08/09 08:16:10;;;;;;;2.55;1.55;;;;;;;;;;4388550;32;316658;-84
2023/08/09 08:18:40;;;;;;;11.40;1.62;;;;;;;;;;4375834;32;316711;-83
2023/08/09 08:21:09;;;;;;;6.07;1.58;;;;;;;;;;4388338;32;317936;-86
2023/08/09 08:23:38;;;;;;;1.98;1.77;;;;;;;;;;4378057;32;316718;-84
2023/08/09 08:26:06;;;;;;;1.77;1.40;;;;;;;;;;4387210;32;316639;-87
2023/08/09 08:28:34;;;;;;;6.45;1.83;;;;;;;;;;4376008;32;316833;-83
2023/08/09 08:31:05;;;;;;;1.85;1.50;;;;;;;;;;4387610;32;317080;-82
2023/08/09 08:33:32;;;;;;;6.32;1.23;;;;;;;;;;4376134;32;316826;-88
2023/08/09 08:36:02;;;;;;;1.42;1.30;;;;;;;;;;4388142;32;316985;-82
2023/08/09 08:38:29;;;;;;;3.97;1.58;;;;;;;;;;4377740;32;317294;-83
2023/08/09 08:40:58;;;;;;;2.97;1.50;;;;;;;;;;4389243;32;316607;-85
2023/08/09 08:43:31;;;;;;;1.87;1.37;;;;;;;;;;4377454;32;316813;-82
2023/08/09 08:45:59;;;;;;;5.93;4.47;;;;;;;;;;4373645;32;316988;-83
2023/08/09 08:48:28;;;;;;;2.08;1.50;;;;;;;;;;4380863;32;317234;-83
2023/08/09 08:50:58;;;;;;;1.95;1.27;;;;;;;;;;4392352;32;316426;-84
2023/08/09 08:53:29;;;;;;;1.75;1.23;;;;;;;;;;4378001;32;316629;-83
2023/08/09 08:55:58;;;;;;;1.42;1.25;;;;;;;;;;4391065;32;319529;-83
2023/08/09 08:58:26;;;;;;;3.17;1.55;;;;;;;;;;4379852;32;316674;-82
2023/08/09 09:00:55;;;;;;;1.45;1.10;;;;;;;;;;4390662;32;317071;-82
2023/08/09 09:03:23;;;;;;;2.45;1.60;;;;;;;;;;4379894;32;316798;-84
2023/08/09 09:05:50;;;;;;;1.70;1.15;;;;;;;;;;4387983;32;316525;-82
2023/08/09 09:08:21;;;;;;;1.60;1.40;;;;;;;;;;4379728;32;316741;-84
2023/08/09 09:10:54;;;;;;;1.23;1.12;;;;;;;;;;4390497;32;316810;-83
2023/08/09 09:13:27;;;;;;;3.80;1.30;;;;;;;;;;4382388;32;316848;-84
2023/08/09 09:15:56;;;;;;;1.50;1.10;;;;;;;;;;4388735;32;316824;-86
2023/08/09 09:18:24;;;;;;;1.75;1.50;;;;;;;;;;4379390;32;316809;-85
2023/08/09 09:20:54;;;;;;;3.05;1.50;;;;;;;;;;4389017;32;317168;-88
2023/08/09 09:23:29;;;;;;;1.77;1.30;;;;;;;;;;4376263;32;367003;-87
2023/08/09 09:26:08;;;;;;;2.25;1.60;;;;;;;;;;4385958;32;316463;-87
2023/08/09 09:28:41;;;;;;;2.10;1.30;;;;;;;;;;4374135;32;316805;-86
2023/08/09 09:31:10;;;;;;;1.30;1.15;;;;;;;;;;4387158;32;316944;-88
2023/08/09 09:33:39;;;;;;;1.42;1.02;;;;;;;;;;4370074;32;316707;-88
2023/08/09 09:36:11;;;;;;;2.85;1.50;;;;;;;;;;4384923;32;316312;-88
2023/08/09 09:38:40;;;;;;;3.90;1.30;;;;;;;;;;4378193;32;316781;-90
2023/08/09 09:41:10;;;;;;;1.62;1.27;;;;;;;;;;4385800;32;316570;-87
2023/08/09 09:43:41;;;;;;;3.08;1.83;;;;;;;;;;4370848;32;316718;-89
2023/08/09 09:46:20;;;;;;;1.48;1.37;;;;;;;;;;4387879;32;315599;-89
2023/08/09 09:48:49;;;;;;;2.08;1.45;;;;;;;;;;4377065;32;387150;-88
2023/08/09 09:51:20;;;;;;;2.75;1.40;;;;;;;;;;4386484;32;316725;-89
2023/08/09 09:53:49;;;;;;;5.85;1.50;;;;;;;;;;4376873;32;386762;-86
2023/08/09 09:56:20;;;;;;;8.42;1.90;;;;;;;;;;4386318;32;316778;-87
2023/08/09 09:58:48;;;;;;;5.05;1.60;;;;;;;;;;4387405;32;316771;-86
2023/08/09 10:01:19;;;;;;;1.52;1.20;;;;;;;;;;4385824;32;316627;-88
2023/08/09 10:03:48;;;;;;;1.42;1.02;;;;;;;;;;4371606;32;417241;-88
2023/08/09 10:06:21;;;;;;;2.58;1.60;;;;;;;;;;4386575;32;336230;-89
2023/08/09 10:08:51;;;;;;;1.50;1.35;;;;;;;;;;4372685;32;415839;-87
2023/08/09 10:11:24;;;;;;;2.40;1.52;;;;;;;;;;4375838;32;316753;-92
2023/08/09 10:13:54;;;;;;;2.65;1.50;;;;;;;;;;4387673;32;316679;-87
2023/08/09 10:16:25;;;;;;;2.35;1.30;;;;;;;;;;4376113;32;316864;-90
2023/08/09 10:18:57;;;;;;;2.42;1.80;;;;;;;;;;4386369;32;316733;-91
2023/08/09 10:21:26;;;;;;;2.35;1.30;;;;;;;;;;4377805;32;316562;-91
2023/08/09 10:23:58;;;;;;;2.72;1.35;;;;;;;;;;4387214;32;316702;-90
2023/08/09 10:26:31;;;;;;;1.77;1.60;;;;;;;;;;4374282;32;316599;-90
2023/08/09 10:29:04;;;;;;;1.70;1.10;;;;;;;;;;4387490;32;316806;-88
2023/08/09 10:31:52;;;;;;;5.90;2.30;;;;;;;;;;4356824;32;316447;-87
2023/08/09 10:34:21;;;;;;;2.67;1.60;;;;;;;;;;4368214;32;316663;-85
2023/08/09 10:36:54;;;;;;;13.38;6.68;;;;;;;;;;4372209;32;316595;-87
2023/08/09 10:39:26;;;;;;;3.28;1.77;;;;;;;;;;4376699;32;317957;-85
2023/08/09 10:42:01;;;;;;;1.65;1.30;;;;;;;;;;4376414;32;316933;-83
2023/08/09 10:44:50;;;;;;;2.95;1.60;;;;;;;;;;4374680;32;316449;-91
2023/08/09 10:47:23;;;;;;;8.65;1.35;;;;;;;;;;4383384;32;315644;-86
2023/08/09 10:50:00;;;;;;;1.60;1.37;;;;;;;;;;4399231;32;316712;-89
2023/08/09 10:52:34;;;;;;;9.70;1.70;;;;;;;;;;4387701;32;316716;-89
2023/08/09 10:55:26;;;;;;;4.35;1.10;;;;;;;;;;4402750;32;315327;-90
2023/08/09 10:57:56;;;;;;;2.97;1.35;;;;;;;;;;4384682;32;387250;-90
2023/08/09 11:00:48;;;;;;;4.68;1.77;;;;;;;;;;4382791;32;316850;-91
2023/08/09 11:03:17;;;;;;;3.00;1.25;;;;;;;;;;4395561;32;316364;-91
2023/08/09 11:05:45;;;;;;;1.92;1.60;;;;;;;;;;4376493;32;416665;-91
2023/08/09 11:08:22;;;;;;;2.85;1.73;;;;;;;;;;4389529;32;317001;-85
2023/08/09 11:10:50;;;;;;;3.05;1.58;;;;;;;;;;4377568;32;417235;-87
2023/08/09 11:13:19;;;;;;;6.18;1.40;;;;;;;;;;4378268;32;316870;-90
2023/08/09 11:15:48;;;;;;;2.33;1.40;;;;;;;;;;4390288;32;316659;-82
2023/08/09 11:18:16;;;;;;;5.18;1.62;;;;;;;;;;4389069;32;316531;-85
2023/08/09 11:20:44;;;;;;;2.37;1.45;;;;;;;;;;4372197;32;416560;-81
2023/08/09 11:23:12;;;;;;;3.15;1.85;;;;;;;;;;4385102;32;316697;-82
2023/08/09 11:25:40;;;;;;;3.22;1.65;;;;;;;;;;4377116;32;320360;-82
2023/08/09 11:28:12;;;;;;;6.53;1.85;;;;;;;;;;4388301;32;315764;-82
2023/08/09 11:30:41;;;;;;;2.17;1.40;;;;;;;;;;4377401;32;316548;-82
2023/08/09 11:33:11;;;;;;;2.45;1.58;;;;;;;;;;4387473;32;327002;-82
2023/08/09 11:35:43;;;;;;;1.70;1.60;;;;;;;;;;4376989;32;316804;-82
2023/08/09 11:38:12;;;;;;;1.92;1.73;;;;;;;;;;4387569;32;317047;-82
2023/08/09 11:40:41;;;;;;;5.25;2.30;;;;;;;;;;4376968;32;316645;-83
2023/08/09 11:43:12;;;;;;;6.80;1.73;;;;;;;;;;4386607;32;335802;-82
2023/08/09 11:45:50;;;;;;;6.15;1.55;;;;;;;;;;4375801;32;316757;-81
2023/08/09 11:48:29;;;;;;;4.55;1.90;;;;;;;;;;4377982;32;316696;-84
2023/08/09 11:51:07;;;;;;;1.67;1.33;;;;;;;;;;4387957;32;316878;-82
2023/08/09 11:53:37;;;;;;;2.60;1.52;;;;;;;;;;4375958;32;317017;-82
2023/08/09 11:56:06;;;;;;;1.85;1.60;;;;;;;;;;4388052;32;316962;-82
2023/08/09 11:58:38;;;;;;;2.37;1.73;;;;;;;;;;4376216;32;316843;-82
2023/08/09 12:01:18;;;;;;;2.75;2.15;;;;;;;;;;4387540;32;317034;-82
2023/08/09 12:03:47;;;;;;;2.40;1.77;;;;;;;;;;4373621;32;416404;-83
2023/08/09 12:06:15;;;;;;;1.95;1.48;;;;;;;;;;4387479;32;317048;-82
2023/08/09 12:08:43;;;;;;;1.83;1.62;;;;;;;;;;4373539;32;416526;-82
2023/08/09 12:11:16;;;;;;;3.92;1.85;;;;;;;;;;4372458;32;316691;-82
2023/08/09 12:13:44;;;;;;;3.08;1.70;;;;;;;;;;4385977;32;316792;-83
2023/08/09 12:16:13;;;;;;;3.65;1.80;;;;;;;;;;4373998;32;416158;-82
2023/08/09 12:18:43;;;;;;;4.20;1.92;;;;;;;;;;4385393;32;316722;-82
2023/08/09 12:21:10;;;;;;;4.82;1.95;;;;;;;;;;4374738;32;316796;-82
2023/08/09 12:23:39;;;;;;;1.65;1.45;;;;;;;;;;4366861;32;315565;-82
2023/08/09 12:26:09;;;;;;;2.63;1.80;;;;;;;;;;4354863;32;315967;-82
2023/08/09 12:28:39;;;;;;;4.32;1.90;;;;;;;;;;4380210;32;316531;-83
2023/08/09 12:31:06;;;;;;;4.47;1.95;;;;;;;;;;4376096;32;316950;-82
2023/08/09 12:33:33;;;;;;;1.70;1.35;;;;;;;;;;4387119;32;316983;-82
2023/08/09 12:36:02;;;;;;;3.28;1.65;;;;;;;;;;4377415;32;317027;-89
2023/08/09 12:38:30;;;;;;;6.22;1.92;;;;;;;;;;4389815;32;354569;-90
2023/08/09 12:40:57;;;;;;;3.72;1.80;;;;;;;;;;4376847;32;316591;-89
2023/08/09 12:43:25;;;;;;;2.42;1.90;;;;;;;;;;4388911;32;316472;-88
2023/08/09 12:45:55;;;;;;;2.60;2.00;;;;;;;;;;4379531;32;316872;-88
2023/08/09 12:48:22;;;;;;;2.37;1.80;;;;;;;;;;4388252;32;316757;-84
2023/08/09 12:50:50;;;;;;;2.25;1.87;;;;;;;;;;4377168;32;316586;-85
2023/08/09 12:53:19;;;;;;;8.77;2.20;;;;;;;;;;4389082;32;316672;-84
2023/08/09 12:55:47;;;;;;;3.00;1.77;;;;;;;;;;4377974;32;316754;-87
2023/08/09 12:58:15;;;;;;;2.20;1.87;;;;;;;;;;4387715;32;316785;-82
2023/08/09 13:00:42;;;;;;;2.17;1.40;;;;;;;;;;4385681;32;316666;-87
2023/08/09 13:03:10;;;;;;;4.90;1.70;;;;;;;;;;4376003;32;348647;-84
2023/08/09 13:05:43;;;;;;;3.05;1.50;;;;;;;;;;4387421;32;315718;-87
2023/08/09 13:08:10;;;;;;;2.00;1.65;;;;;;;;;;4378785;32;316738;-85
2023/08/09 13:10:39;;;;;;;3.35;1.90;;;;;;;;;;4387849;32;316679;-84
2023/08/09 13:13:07;;;;;;;2.47;1.95;;;;;;;;;;4376632;32;316591;-85
2023/08/09 13:15:34;;;;;;;3.45;1.87;;;;;;;;;;4386307;32;316682;-82
2023/08/09 13:18:02;;;;;;;3.28;2.00;;;;;;;;;;4376181;32;316786;-82
2023/08/09 13:20:29;;;;;;;2.58;1.80;;;;;;;;;;4387267;32;316646;-82
2023/08/09 13:22:57;;;;;;;2.10;1.60;;;;;;;;;;4378210;32;316645;-84
2023/08/09 13:25:25;;;;;;;4.90;2.70;;;;;;;;;;4387610;32;316794;-84
2023/08/09 13:27:54;;;;;;;2.33;1.70;;;;;;;;;;4377878;32;316676;-82
2023/08/09 13:30:21;;;;;;;2.15;1.83;;;;;;;;;;4387014;32;316673;-84
2023/08/09 13:32:49;;;;;;;2.17;1.60;;;;;;;;;;4378219;32;316551;-84
2023/08/09 13:35:17;;;;;;;2.00;1.65;;;;;;;;;;4388450;32;316699;-82
2023/08/09 13:37:44;;;;;;;3.60;1.62;;;;;;;;;;4387364;32;316552;-83
2023/08/09 13:40:13;;;;;;;2.90;1.80;;;;;;;;;;4374101;32;416021;-82
2023/08/09 13:42:40;;;;;;;2.42;1.67;;;;;;;;;;4386031;32;316671;-82
2023/08/09 13:45:11;;;;;;;1.50;1.35;;;;;;;;;;4366873;32;317002;-83
2023/08/09 13:47:38;;;;;;;3.12;1.83;;;;;;;;;;4377062;32;329222;-82
2023/08/09 13:50:09;;;;;;;3.15;1.77;;;;;;;;;;4364508;32;316529;-81
2023/08/09 13:52:37;;;;;;;3.78;1.87;;;;;;;;;;4390046;32;316645;-84
2023/08/09 13:55:09;;;;;;;6.87;1.80;;;;;;;;;;4378587;32;316592;-83
2023/08/09 13:57:37;;;;;;;3.33;1.80;;;;;;;;;;4390538;32;316699;-84
2023/08/09 14:00:08;;;;;;;2.87;2.20;;;;;;;;;;4378544;32;337462;-83
2023/08/09 14:02:37;;;;;;;3.20;2.08;;;;;;;;;;4387551;32;316651;-84
2023/08/09 14:05:05;;;;;;;7.53;1.92;;;;;;;;;;4377113;32;316616;-84
2023/08/09 14:07:32;;;;;;;6.78;1.92;;;;;;;;;;4386416;32;316570;-84
2023/08/09 14:09:59;;;;;;;1.73;1.45;;;;;;;;;;4378123;32;316681;-84
2023/08/09 14:12:27;;;;;;;4.62;2.05;;;;;;;;;;4388693;32;332796;-84
2023/08/09 14:14:55;;;;;;;2.65;2.17;;;;;;;;;;4377895;32;316816;-84
2023/08/09 14:17:22;;;;;;;3.25;2.12;;;;;;;;;;4387202;32;316546;-84
2023/08/09 14:19:51;;;;;;;10.07;2.12;;;;;;;;;;4377355;32;316663;-84
2023/08/09 14:22:19;;;;;;;2.40;2.05;;;;;;;;;;4387793;32;317657;-83
2023/08/09 14:24:46;;;;;;;3.87;2.00;;;;;;;;;;4378118;32;316617;-84
2023/08/09 14:27:14;;;;;;;5.30;2.00;;;;;;;;;;4389389;32;317042;-84
2023/08/09 14:29:43;;;;;;;3.03;2.28;;;;;;;;;;4387546;32;316865;-84
2023/08/09 14:32:11;;;;;;;2.15;1.70;;;;;;;;;;4378156;32;316962;-84
2023/08/09 14:34:39;;;;;;;7.55;2.53;;;;;;;;;;4389540;32;316829;-84
2023/08/09 14:37:08;;;;;;;1.98;1.70;;;;;;;;;;4378444;32;316779;-85
2023/08/09 14:39:37;;;;;;;3.75;1.80;;;;;;;;;;4387297;32;316748;-84
2023/08/09 14:42:05;;;;;;;2.67;2.00;;;;;;;;;;4376248;32;316768;-84